Time;durP1;ratioP1;P1;durP2;ratioP2;P2;SDS_P1;SDS_P2;PMS_P1;PMS_P2;Temp;Humidity;BMP_temperature;BMP_pressure;BME280_temperature;BME280_humidity;BME280_pressure;Samples;Min_cycle;Max_cycle;Signal;HPM_P1;HPM_P2
2022/07/29 00:01:43;;;;;;;6.18;2.13;;;14.90;99.90;;;;;;5060199;28;20036;-68
2022/07/29 00:04:08;;;;;;;6.57;2.40;;;15.00;99.90;;;;;;5041571;28;20155;-68
2022/07/29 00:06:34;;;;;;;6.57;2.42;;;15.00;99.90;;;;;;5059963;28;20021;-68
2022/07/29 00:09:00;;;;;;;4.75;2.40;;;15.00;99.90;;;;;;5061162;28;20138;-68
2022/07/29 00:11:25;;;;;;;7.03;2.10;;;15.10;99.90;;;;;;5060469;28;20115;-68
2022/07/29 00:13:51;;;;;;;3.85;1.90;;;15.10;99.90;;;;;;5042675;28;20059;-68
2022/07/29 00:16:17;;;;;;;6.72;2.35;;;15.10;99.90;;;;;;5057485;28;20108;-68
2022/07/29 00:18:42;;;;;;;6.38;2.55;;;15.10;99.90;;;;;;5058046;28;20033;-67
2022/07/29 00:21:08;;;;;;;5.38;2.47;;;15.10;99.90;;;;;;5058616;28;20039;-69
2022/07/29 00:23:34;;;;;;;6.53;2.10;;;15.00;99.90;;;;;;5057516;28;20040;-68
2022/07/29 00:26:00;;;;;;;7.25;2.40;;;15.00;99.90;;;;;;5059572;28;20028;-69
2022/07/29 00:28:25;;;;;;;7.88;2.10;;;14.90;99.90;;;;;;5055989;28;20546;-69
2022/07/29 00:30:51;;;;;;;5.30;2.28;;;14.80;99.90;;;;;;5062089;28;20524;-69
2022/07/29 00:33:17;;;;;;;5.25;1.92;;;14.90;99.90;;;;;;5041393;28;20486;-69
2022/07/29 00:35:45;;;;;;;7.90;2.40;;;14.90;99.90;;;;;;5057504;28;20063;-69
2022/07/29 00:38:13;;;;;;;7.20;2.57;;;14.90;99.90;;;;;;5057511;28;20511;-68
2022/07/29 00:40:39;;;;;;;6.55;2.40;;;14.80;99.90;;;;;;5056623;28;20041;-69
2022/07/29 00:43:05;;;;;;;8.93;2.53;;;14.80;99.90;;;;;;5057601;28;20028;-68
2022/07/29 00:45:31;;;;;;;9.05;2.85;;;14.80;99.90;;;;;;5060021;28;20774;-69
2022/07/29 00:47:57;;;;;;;5.72;2.33;;;14.80;99.90;;;;;;5058158;28;20044;-66
2022/07/29 00:50:23;;;;;;;6.78;2.15;;;14.80;99.90;;;;;;5058481;28;20091;-69
2022/07/29 00:52:50;;;;;;;9.23;2.60;;;14.90;99.90;;;;;;5039240;28;20028;-69
2022/07/29 00:55:16;;;;;;;4.75;2.50;;;14.90;99.90;;;;;;5058662;28;20036;-68
2022/07/29 00:57:44;;;;;;;5.53;2.17;;;14.90;99.90;;;;;;5058808;28;20032;-68
2022/07/29 01:00:13;;;;;;;7.82;2.50;;;14.90;99.90;;;;;;5059276;28;20485;-68
2022/07/29 01:02:39;;;;;;;5.00;2.20;;;14.90;99.90;;;;;;5057143;28;20028;-67
2022/07/29 01:05:06;;;;;;;6.85;2.33;;;14.90;99.90;;;;;;5057513;28;20039;-67
2022/07/29 01:07:36;;;;;;;6.95;2.38;;;14.80;99.90;;;;;;5055676;28;20035;-69
2022/07/29 01:10:07;;;;;;;6.57;2.15;;;14.80;99.90;;;;;;5040054;28;21111;-69
2022/07/29 01:12:35;;;;;;;5.40;2.42;;;14.70;99.90;;;;;;5057284;28;20039;-69
2022/07/29 01:15:02;;;;;;;6.80;2.60;;;14.70;99.90;;;;;;5060249;28;20032;-69
2022/07/29 01:17:46;;;;;;;7.05;2.30;;;14.60;99.90;;;;;;5058188;28;20036;-68
2022/07/29 01:20:14;;;;;;;4.72;2.22;;;14.60;99.90;;;;;;5055537;28;20032;-67
2022/07/29 01:22:53;;;;;;;6.45;2.35;;;14.50;99.90;;;;;;5039805;28;20164;-69
2022/07/29 01:25:40;;;;;;;6.47;2.50;;;14.50;99.90;;;;;;5043500;28;20059;-67
2022/07/29 01:28:40;;;;;;;5.72;2.20;;;14.50;99.90;;;;;;5058166;28;20055;-68
2022/07/29 01:31:07;;;;;;;5.50;2.17;;;14.50;99.90;;;;;;5039272;28;20025;-67
2022/07/29 01:33:49;;;;;;;7.63;2.10;;;14.50;99.90;;;;;;5054067;28;20139;-68
2022/07/29 01:36:30;;;;;;;6.47;2.40;;;14.50;99.90;;;;;;5058963;28;20414;-67
2022/07/29 01:39:16;;;;;;;6.38;2.40;;;14.50;99.90;;;;;;5060378;28;20036;-67
2022/07/29 01:41:59;;;;;;;3.85;1.85;;;14.50;99.90;;;;;;5060091;28;20743;-69
2022/07/29 01:44:46;;;;;;;7.28;2.30;;;14.60;99.90;;;;;;5062869;28;20028;-69
2022/07/29 01:47:17;;;;;;;4.75;2.10;;;14.60;99.90;;;;;;5061485;28;20078;-69
2022/07/29 01:49:49;;;;;;;6.72;2.30;;;14.50;99.90;;;;;;5060725;28;20114;-67
2022/07/29 01:52:36;;;;;;;6.03;2.38;;;14.60;99.90;;;;;;5060030;28;20037;-67
2022/07/29 01:55:07;;;;;;;6.25;2.15;;;14.60;99.90;;;;;;5061101;28;20029;-67
2022/07/29 01:57:35;;;;;;;5.72;2.17;;;14.70;99.90;;;;;;5062015;28;20033;-67
2022/07/29 02:00:03;;;;;;;7.53;2.08;;;14.70;99.90;;;;;;5042143;28;20949;-67
2022/07/29 02:02:31;;;;;;;6.18;2.22;;;14.70;99.90;;;;;;5043768;28;20047;-68
2022/07/29 02:04:59;;;;;;;8.10;2.30;;;14.70;99.90;;;;;;5044619;28;20482;-68
2022/07/29 02:07:29;;;;;;;5.13;2.30;;;14.70;99.90;;;;;;5062176;28;20032;-69
2022/07/29 02:09:56;;;;;;;6.15;2.25;;;14.70;99.90;;;;;;5062584;28;20044;-68
2022/07/29 02:12:23;;;;;;;7.22;2.45;;;14.70;99.90;;;;;;5060741;28;20060;-68
2022/07/29 02:14:52;;;;;;;6.20;2.45;;;14.60;99.90;;;;;;5043395;28;20024;-68
2022/07/29 02:17:25;;;;;;;5.90;2.20;;;14.60;99.90;;;;;;5062625;28;20115;-68
2022/07/29 02:19:55;;;;;;;7.80;2.33;;;14.50;99.90;;;;;;5062792;28;20783;-68
2022/07/29 02:22:22;;;;;;;;;;;14.50;99.90;;;;;;5042626;28;20036;-68
2022/07/29 02:24:50;;;;;;;8.18;2.50;;;14.50;99.90;;;;;;5040569;28;20415;-68
2022/07/29 02:27:18;;;;;;;4.97;2.72;;;14.50;99.90;;;;;;5059537;28;20040;-68
2022/07/29 02:29:46;;;;;;;6.97;2.40;;;14.50;99.90;;;;;;5060996;28;20143;-69
2022/07/29 02:32:14;;;;;;;6.10;2.42;;;14.50;99.90;;;;;;5061848;28;20122;-69
2022/07/29 02:34:42;;;;;;;7.63;2.78;;;14.40;99.90;;;;;;5039482;28;20028;-67
2022/07/29 02:37:12;;;;;;;9.38;2.88;;;14.30;99.90;;;;;;5063277;28;20655;-68
2022/07/29 02:39:40;;;;;;;7.05;2.40;;;14.30;99.90;;;;;;5059222;28;20143;-68
2022/07/29 02:42:10;;;;;;;5.80;2.85;;;14.20;99.90;;;;;;5062347;28;20032;-68
2022/07/29 02:44:36;;;;;;;4.55;2.40;;;14.10;99.90;;;;;;5060690;28;20036;-69
2022/07/29 02:47:21;;;;;;;9.02;2.75;;;14.10;99.90;;;;;;5060745;28;20031;-68
2022/07/29 02:50:08;;;;;;;6.93;2.67;;;14.10;99.90;;;;;;5058994;28;20025;-68
2022/07/29 02:52:53;;;;;;;7.05;2.60;;;14.10;99.90;;;;;;5055558;28;20175;-69
2022/07/29 02:55:31;;;;;;;7.03;2.55;;;14.00;99.90;;;;;;5056798;28;20491;-68
2022/07/29 02:58:00;;;;;;;6.78;2.38;;;14.00;99.90;;;;;;5043485;28;20103;-68
2022/07/29 03:00:29;;;;;;;9.27;2.80;;;14.00;99.90;;;;;;5058290;28;20040;-69
2022/07/29 03:02:58;;;;;;;5.87;2.27;;;14.00;99.90;;;;;;5042598;28;20114;-68
2022/07/29 03:05:25;;;;;;;6.27;2.20;;;14.00;99.90;;;;;;5061165;28;20036;-68
2022/07/29 03:08:11;;;;;;;6.15;2.15;;;14.10;99.90;;;;;;5060633;28;20037;-69
2022/07/29 03:10:43;;;;;;;5.45;2.25;;;14.20;99.90;;;;;;5042234;28;20056;-69
2022/07/29 03:13:10;;;;;;;7.00;2.22;;;14.20;99.90;;;;;;5062729;28;20147;-66
2022/07/29 03:15:36;;;;;;;7.75;2.45;;;14.30;99.90;;;;;;5059677;28;20036;-67
2022/07/29 03:18:02;;;;;;;7.22;2.20;;;14.30;99.90;;;;;;5060026;28;20032;-67
2022/07/29 03:20:28;;;;;;;5.30;2.25;;;14.30;99.90;;;;;;5062094;28;20038;-69
2022/07/29 03:22:54;;;;;;;6.20;2.50;;;14.30;99.90;;;;;;5058196;28;20403;-69
2022/07/29 03:25:20;;;;;;;5.80;2.40;;;14.30;99.90;;;;;;5060736;28;20039;-69
2022/07/29 03:27:48;;;;;;;8.10;2.72;;;14.30;99.90;;;;;;5060890;28;20028;-67
2022/07/29 03:30:15;;;;;;;5.25;2.50;;;14.30;99.90;;;;;;5060868;28;20034;-67
2022/07/29 03:32:41;;;;;;;7.05;2.47;;;14.20;99.90;;;;;;5060108;28;20037;-67
2022/07/29 03:35:08;;;;;;;8.13;2.83;;;14.10;99.90;;;;;;5059970;28;20108;-67
2022/07/29 03:37:36;;;;;;;10.52;2.90;;;14.10;99.90;;;;;;5060530;28;20039;-67
2022/07/29 03:40:05;;;;;;;4.45;2.40;;;14.00;99.90;;;;;;5059981;28;20534;-67
2022/07/29 03:42:33;;;;;;;6.85;2.60;;;14.00;99.90;;;;;;5056032;28;20081;-68
2022/07/29 03:45:01;;;;;;;6.60;2.35;;;13.90;99.90;;;;;;5058224;28;20040;-68
2022/07/29 03:47:29;;;;;;;7.07;2.90;;;13.90;99.90;;;;;;5058970;28;20027;-68
2022/07/29 03:50:08;;;;;;;6.80;2.47;;;13.90;99.90;;;;;;5059388;28;20116;-68
2022/07/29 03:52:35;;;;;;;6.90;2.87;;;13.90;99.90;;;;;;5061316;28;20157;-68
2022/07/29 03:55:02;;;;;;;6.00;2.50;;;13.80;99.90;;;;;;5060736;28;20043;-68
2022/07/29 03:57:31;;;;;;;8.68;2.83;;;13.70;99.90;;;;;;5062243;28;20037;-67
2022/07/29 03:59:57;;;;;;;5.95;2.38;;;13.80;99.90;;;;;;5060920;28;20033;-67
2022/07/29 04:02:25;;;;;;;7.25;2.67;;;13.80;99.90;;;;;;5056717;28;20477;-67
2022/07/29 04:04:51;;;;;;;6.95;2.80;;;13.90;99.90;;;;;;5062155;28;20039;-68
2022/07/29 04:07:17;;;;;;;6.18;2.90;;;13.90;99.90;;;;;;5060154;28;20024;-68
2022/07/29 04:09:43;;;;;;;7.00;2.53;;;13.80;99.90;;;;;;5061675;28;20039;-68
2022/07/29 04:12:09;;;;;;;6.78;2.65;;;13.80;99.90;;;;;;5058857;28;20581;-69
2022/07/29 04:14:35;;;;;;;5.07;2.30;;;13.80;99.90;;;;;;5059438;28;20028;-68
2022/07/29 04:17:03;;;;;;;7.50;2.53;;;13.80;99.90;;;;;;5058792;28;20367;-68
2022/07/29 04:19:29;;;;;;;4.65;2.35;;;13.90;99.90;;;;;;5059633;28;21973;-68
2022/07/29 04:21:54;;;;;;;7.43;2.63;;;13.90;99.90;;;;;;5059550;28;20033;-69
2022/07/29 04:24:20;;;;;;;6.63;2.75;;;13.90;99.90;;;;;;5062868;28;20035;-68
2022/07/29 04:26:47;;;;;;;6.57;3.22;;;13.90;99.90;;;;;;5059080;28;20085;-68
2022/07/29 04:29:14;;;;;;;8.90;2.70;;;13.90;99.90;;;;;;5061283;28;20135;-68
2022/07/29 04:31:40;;;;;;;6.10;2.70;;;13.90;99.90;;;;;;5059201;28;20052;-68
2022/07/29 04:34:06;;;;;;;5.38;2.53;;;13.90;99.90;;;;;;5058664;28;20056;-69
2022/07/29 04:36:31;;;;;;;6.47;2.60;;;14.00;99.90;;;;;;5040181;28;20124;-68
2022/07/29 04:38:57;;;;;;;8.77;2.97;;;14.00;99.90;;;;;;5057695;28;20063;-68
2022/07/29 04:41:23;;;;;;;6.70;2.60;;;14.10;99.90;;;;;;5059225;28;20039;-68
2022/07/29 04:43:49;;;;;;;5.95;2.40;;;14.10;99.90;;;;;;5042427;28;20043;-68
2022/07/29 04:46:15;;;;;;;7.55;2.55;;;14.20;99.90;;;;;;5057249;28;20518;-67
2022/07/29 04:48:41;;;;;;;7.65;2.67;;;14.30;99.90;;;;;;5057475;28;20051;-68
2022/07/29 04:51:06;;;;;;;9.25;3.10;;;14.30;99.90;;;;;;5037992;28;20105;-67
2022/07/29 04:53:32;;;;;;;7.60;2.55;;;14.40;99.90;;;;;;5056841;28;20048;-67
2022/07/29 04:55:58;;;;;;;5.80;2.50;;;14.40;99.90;;;;;;5038493;28;20411;-67
2022/07/29 04:58:24;;;;;;;4.57;2.50;;;14.50;99.90;;;;;;5041028;28;20036;-67
2022/07/29 05:00:50;;;;;;;7.25;2.92;;;14.60;99.90;;;;;;5058055;28;20101;-68
2022/07/29 05:03:16;;;;;;;5.35;2.40;;;14.60;99.90;;;;;;5061250;28;20033;-67
2022/07/29 05:05:42;;;;;;;8.05;2.50;;;14.60;99.90;;;;;;5057455;28;20032;-67
2022/07/29 05:08:08;;;;;;;4.85;2.30;;;14.60;99.90;;;;;;5060145;28;20040;-67
2022/07/29 05:10:37;;;;;;;8.48;2.72;;;14.70;99.90;;;;;;5059420;28;20052;-67
2022/07/29 05:13:05;;;;;;;7.88;2.53;;;14.70;99.90;;;;;;5061188;28;20025;-67
2022/07/29 05:15:31;;;;;;;8.38;2.85;;;14.80;99.90;;;;;;5043099;28;20033;-67
2022/07/29 05:17:57;;;;;;;8.00;2.53;;;14.80;99.90;;;;;;5064161;28;20039;-68
2022/07/29 05:20:26;;;;;;;5.78;2.45;;;14.80;99.90;;;;;;5062050;28;20028;-68
2022/07/29 05:22:52;;;;;;;7.72;3.17;;;14.90;99.90;;;;;;5065574;28;20060;-68
2022/07/29 05:25:18;;;;;;;6.18;2.40;;;14.90;99.90;;;;;;5061546;28;20036;-67
2022/07/29 05:27:43;;;;;;;6.97;2.45;;;15.00;99.90;;;;;;5062667;28;20032;-67
2022/07/29 05:30:09;;;;;;;7.28;2.83;;;15.00;99.90;;;;;;5060773;28;20521;-67
2022/07/29 05:32:35;;;;;;;6.30;2.42;;;15.00;99.90;;;;;;5046943;28;20055;-68
2022/07/29 05:35:01;;;;;;;7.03;2.70;;;15.10;99.90;;;;;;5045682;28;20140;-67
2022/07/29 05:37:27;;;;;;;6.68;2.20;;;15.20;99.90;;;;;;5061210;28;20032;-68
2022/07/29 05:39:52;;;;;;;5.53;2.50;;;15.20;99.90;;;;;;5063130;28;20032;-68
2022/07/29 05:42:18;;;;;;;7.85;2.58;;;15.20;99.90;;;;;;5062790;28;20110;-68
2022/07/29 05:44:44;;;;;;;7.45;2.65;;;15.20;99.90;;;;;;5064019;28;20109;-68
2022/07/29 05:47:09;;;;;;;7.57;2.65;;;15.30;99.90;;;;;;5062565;28;20490;-67
2022/07/29 05:49:35;;;;;;;5.72;2.20;;;15.30;99.90;;;;;;5062106;28;20044;-68
2022/07/29 05:52:01;;;;;;;4.85;2.30;;;15.30;99.90;;;;;;5062692;28;20394;-68
2022/07/29 05:54:27;;;;;;;7.65;2.35;;;15.30;99.90;;;;;;5062116;28;20033;-68
2022/07/29 05:56:52;;;;;;;9.75;2.70;;;15.40;99.90;;;;;;5039970;28;20029;-68
2022/07/29 05:59:18;;;;;;;8.27;2.67;;;15.50;99.90;;;;;;5044900;28;20039;-68
2022/07/29 06:01:44;;;;;;;6.13;2.60;;;15.50;99.90;;;;;;5059137;28;20557;-68
2022/07/29 06:04:09;;;;;;;5.70;2.55;;;15.50;99.90;;;;;;5061320;28;20124;-68
2022/07/29 06:06:35;;;;;;;5.93;2.42;;;15.50;99.90;;;;;;5034866;28;20028;-69
2022/07/29 06:09:02;;;;;;;5.95;2.72;;;15.50;99.90;;;;;;5041316;28;20051;-68
2022/07/29 06:11:28;;;;;;;5.63;2.42;;;15.60;99.90;;;;;;5060498;28;20051;-68
2022/07/29 06:13:54;;;;;;;7.03;2.63;;;15.60;99.90;;;;;;5064172;28;20032;-68
2022/07/29 06:16:19;;;;;;;7.10;2.72;;;15.70;99.90;;;;;;5042066;28;20028;-68
2022/07/29 06:18:45;;;;;;;6.95;2.60;;;15.70;99.90;;;;;;5059603;28;20179;-68
2022/07/29 06:21:11;;;;;;;6.22;2.65;;;15.80;99.90;;;;;;5058126;28;20068;-69
2022/07/29 06:23:37;;;;;;;5.25;2.42;;;15.80;99.90;;;;;;5041277;28;20028;-68
2022/07/29 06:26:04;;;;;;;5.57;2.70;;;15.80;99.90;;;;;;5043770;28;20032;-68
2022/07/29 06:28:29;;;;;;;7.45;2.78;;;15.80;99.90;;;;;;5060036;28;20802;-68
2022/07/29 06:30:55;;;;;;;5.25;2.47;;;15.80;99.90;;;;;;5059996;28;20029;-69
2022/07/29 06:33:21;;;;;;;9.48;2.78;;;15.90;99.90;;;;;;5040861;28;20033;-68
2022/07/29 06:35:47;;;;;;;6.65;2.60;;;15.90;99.90;;;;;;5042415;28;20124;-68
2022/07/29 06:38:13;;;;;;;7.93;3.22;;;15.90;99.90;;;;;;5056901;28;20967;-68
2022/07/29 06:43:37;;;;;;;8.50;2.70;;;16.00;99.90;;;;;;5059705;28;20119;-68
2022/07/29 06:46:08;;;;;;;8.68;2.80;;;16.00;99.90;;;;;;5039179;28;20048;-68
2022/07/29 06:48:35;;;;;;;6.65;2.65;;;16.00;99.90;;;;;;5056871;28;20072;-68
2022/07/29 06:51:02;;;;;;;8.55;2.80;;;16.10;99.90;;;;;;5059711;28;20036;-68
2022/07/29 06:53:28;;;;;;;6.57;2.33;;;16.20;99.90;;;;;;5058855;28;20027;-67
2022/07/29 06:55:54;;;;;;;8.52;2.60;;;16.30;99.90;;;;;;5058382;28;20025;-68
2022/07/29 06:58:20;;;;;;;6.82;2.60;;;16.50;99.90;;;;;;5058619;28;20047;-68
2022/07/29 07:00:47;;;;;;;9.18;3.08;;;16.70;99.90;;;;;;5054544;28;20032;-68
2022/07/29 07:03:13;;;;;;;6.55;2.67;;;16.80;99.90;;;;;;5037324;28;20028;-68
2022/07/29 07:05:39;;;;;;;8.30;2.53;;;16.90;99.90;;;;;;5059657;28;20139;-68
2022/07/29 07:08:05;;;;;;;7.10;2.50;;;17.10;99.90;;;;;;5060357;28;20044;-68
2022/07/29 07:10:32;;;;;;;8.20;2.55;;;17.20;99.90;;;;;;5056789;28;20113;-68
2022/07/29 07:12:57;;;;;;;8.82;2.42;;;17.30;99.90;;;;;;5041902;28;20016;-67
2022/07/29 07:15:23;;;;;;;6.00;2.38;;;17.40;99.90;;;;;;5059023;28;20043;-68
2022/07/29 07:17:49;;;;;;;7.70;2.45;;;17.60;99.90;;;;;;5057544;28;20041;-68
2022/07/29 07:20:16;;;;;;;8.10;2.78;;;17.70;99.90;;;;;;5057657;28;20039;-68
2022/07/29 07:22:41;;;;;;;10.48;3.17;;;17.80;99.90;;;;;;5040633;28;20040;-69
2022/07/29 07:25:07;;;;;;;6.82;3.08;;;17.90;99.90;;;;;;5060091;28;20052;-68
2022/07/29 07:27:33;;;;;;;8.18;2.75;;;18.10;99.90;;;;;;5058067;28;20039;-68
2022/07/29 07:29:59;;;;;;;8.98;3.35;;;18.20;99.90;;;;;;5060417;28;20044;-68
2022/07/29 07:32:24;;;;;;;7.95;3.15;;;18.30;99.90;;;;;;5061848;28;20059;-68
2022/07/29 07:34:50;;;;;;;8.80;2.88;;;18.40;99.90;;;;;;5047466;28;20064;-68
2022/07/29 07:37:16;;;;;;;9.05;2.53;;;18.50;99.90;;;;;;5060205;28;20032;-68
2022/07/29 07:39:42;;;;;;;7.75;2.38;;;18.70;99.90;;;;;;5058438;28;20035;-68
2022/07/29 07:42:10;;;;;;;6.90;2.17;;;18.70;99.90;;;;;;5041910;28;20028;-68
2022/07/29 07:44:35;;;;;;;7.78;2.35;;;18.80;99.90;;;;;;5059912;28;20536;-68
2022/07/29 07:47:01;;;;;;;7.63;2.45;;;18.80;99.90;;;;;;5060763;28;20037;-68
2022/07/29 07:49:26;;;;;;;7.38;2.65;;;18.90;99.90;;;;;;5059057;28;20086;-68
2022/07/29 07:51:52;;;;;;;8.32;2.30;;;18.90;99.90;;;;;;5040898;28;20089;-69
2022/07/29 07:54:18;;;;;;;7.68;2.88;;;19.00;99.90;;;;;;5060910;28;20490;-68
2022/07/29 07:56:43;;;;;;;8.77;2.42;;;19.00;99.90;;;;;;5059548;28;20111;-69
2022/07/29 07:59:09;;;;;;;6.35;2.20;;;19.10;99.90;;;;;;5043964;28;20040;-68
2022/07/29 08:01:35;;;;;;;6.32;2.20;;;19.10;99.90;;;;;;5059333;28;20371;-69
2022/07/29 08:04:00;;;;;;;7.38;2.20;;;19.20;99.90;;;;;;5061307;28;20553;-69
2022/07/29 08:06:26;;;;;;;7.20;2.42;;;19.40;99.90;;;;;;5038405;28;20059;-69
2022/07/29 08:08:51;;;;;;;7.18;2.40;;;19.50;99.90;;;;;;5040927;28;20046;-69
2022/07/29 08:11:17;;;;;;;11.27;2.38;;;19.60;99.90;;;;;;5039407;28;20076;-69
2022/07/29 08:13:43;;;;;;;6.38;2.30;;;19.60;99.90;;;;;;5059621;28;20497;-69
2022/07/29 08:16:12;;;;;;;4.68;1.80;;;19.70;99.90;;;;;;5059359;28;20029;-69
2022/07/29 08:18:39;;;;;;;6.85;2.13;;;19.80;99.90;;;;;;5061939;28;20039;-68
2022/07/29 08:21:05;;;;;;;8.00;1.85;;;19.90;99.90;;;;;;5059686;28;20084;-69
2022/07/29 08:23:38;;;;;;;8.07;2.10;;;20.10;99.90;;;;;;5055843;28;20186;-69
2022/07/29 08:26:05;;;;;;;6.93;2.08;;;20.40;99.90;;;;;;5056935;28;20024;-68
2022/07/29 08:28:31;;;;;;;6.13;2.10;;;20.60;99.90;;;;;;5041408;28;20037;-69
2022/07/29 08:30:56;;;;;;;5.10;1.70;;;20.80;99.90;;;;;;5060891;28;20029;-69
2022/07/29 08:33:22;;;;;;;8.00;2.00;;;21.00;99.90;;;;;;5040939;28;20557;-69
2022/07/29 08:35:49;;;;;;;6.38;1.80;;;21.30;99.70;;;;;;5058371;28;20029;-69
2022/07/29 08:38:15;;;;;;;7.25;1.50;;;21.50;99.90;;;;;;5043838;28;20873;-69
2022/07/29 08:40:41;;;;;;;6.57;1.95;;;21.80;99.60;;;;;;5041976;28;20039;-69
2022/07/29 08:43:08;;;;;;;6.63;1.95;;;22.00;98.40;;;;;;5037317;28;20040;-69
2022/07/29 08:45:45;;;;;;;3.08;1.50;;;22.00;98.60;;;;;;5056449;28;20036;-69
2022/07/29 08:48:29;;;;;;;5.03;2.00;;;22.00;98.30;;;;;;5054664;28;20478;-69
2022/07/29 08:50:56;;;;;;;5.72;1.65;;;22.10;98.00;;;;;;5040685;28;20788;-69
2022/07/29 08:53:26;;;;;;;5.13;1.42;;;22.10;98.50;;;;;;5046321;28;20044;-68
2022/07/29 08:55:52;;;;;;;4.70;1.70;;;22.10;98.00;;;;;;5062515;28;20043;-68
2022/07/29 08:58:19;;;;;;;6.03;1.67;;;22.20;97.30;;;;;;5046063;28;20036;-68
2022/07/29 09:00:53;;;;;;;9.85;1.65;;;22.20;97.00;;;;;;5062108;28;20032;-67
2022/07/29 09:03:22;;;;;;;4.22;1.60;;;22.10;95.60;;;;;;5060356;28;20158;-67
2022/07/29 09:05:48;;;;;;;7.50;2.28;;;22.10;96.00;;;;;;5059812;28;20024;-67
2022/07/29 09:08:15;;;;;;;4.53;1.80;;;22.00;95.70;;;;;;5061597;28;20048;-68
2022/07/29 09:10:40;;;;;;;5.18;1.52;;;22.10;95.70;;;;;;5061047;28;20083;-68
2022/07/29 09:13:06;;;;;;;6.93;2.10;;;22.20;95.20;;;;;;5062093;28;20152;-68
2022/07/29 09:15:32;;;;;;;6.38;2.00;;;22.50;94.80;;;;;;5063059;28;20037;-68
2022/07/29 09:17:59;;;;;;;6.72;1.80;;;22.70;94.20;;;;;;5044220;28;20442;-69
2022/07/29 09:20:25;;;;;;;5.20;1.88;;;22.90;93.50;;;;;;5039974;28;20264;-69
2022/07/29 09:22:55;;;;;;;6.82;1.90;;;22.80;93.20;;;;;;5058831;28;20128;-67
2022/07/29 09:25:38;;;;;;;5.75;1.60;;;22.90;92.10;;;;;;5064148;28;20036;-67
2022/07/29 09:28:16;;;;;;;5.82;1.45;;;23.00;91.70;;;;;;5061085;28;20043;-68
2022/07/29 09:30:56;;;;;;;4.07;1.70;;;23.00;91.70;;;;;;5061888;28;20043;-68
2022/07/29 09:33:23;;;;;;;5.22;1.50;;;23.10;90.70;;;;;;5060646;28;20037;-69
2022/07/29 09:36:05;;;;;;;7.07;1.50;;;23.10;90.50;;;;;;5059541;28;20093;-68
2022/07/29 09:38:31;;;;;;;6.30;1.50;;;23.10;89.80;;;;;;5041239;28;20060;-69
2022/07/29 09:40:59;;;;;;;4.85;1.80;;;23.10;87.90;;;;;;5047164;28;20277;-68
2022/07/29 09:43:24;;;;;;;5.88;1.63;;;23.20;88.30;;;;;;5061564;28;20035;-68
2022/07/29 09:45:50;;;;;;;4.60;1.35;;;23.30;82.90;;;;;;5045360;28;20028;-68
2022/07/29 09:48:25;;;;;;;4.32;1.40;;;23.30;81.30;;;;;;5061161;28;20048;-68
2022/07/29 09:50:52;;;;;;;3.22;1.05;;;23.40;70.90;;;;;;5059678;28;20037;-67
2022/07/29 09:53:37;;;;;;;3.70;1.40;;;23.50;72.90;;;;;;5060647;28;20025;-70
2022/07/29 09:56:04;;;;;;;5.43;1.33;;;23.50;74.00;;;;;;5045143;28;20028;-69
2022/07/29 09:58:30;;;;;;;3.63;1.27;;;23.70;77.80;;;;;;5045626;28;20037;-69
2022/07/29 10:00:56;;;;;;;3.67;1.20;;;23.80;79.50;;;;;;5044544;28;20035;-69
2022/07/29 10:03:22;;;;;;;3.40;1.27;;;24.00;71.70;;;;;;5064949;28;20036;-68
2022/07/29 10:06:24;;;;;;;6.53;1.60;;;24.10;72.50;;;;;;5061333;28;20035;-69
2022/07/29 10:08:50;;;;;;;3.42;1.20;;;24.20;69.40;;;;;;4941634;28;20050;-69
2022/07/29 10:11:17;;;;;;;4.15;1.30;;;24.30;69.90;;;;;;4945778;28;20050;-68
2022/07/29 10:13:45;;;;;;;4.70;1.30;;;24.60;64.50;;;;;;4941904;28;20148;-69
2022/07/29 10:16:13;;;;;;;3.53;1.05;;;24.70;64.90;;;;;;4942810;28;20047;-68
2022/07/29 10:18:40;;;;;;;4.18;1.00;;;24.90;63.80;;;;;;4939495;28;20086;-68
2022/07/29 10:21:07;;;;;;;2.92;1.20;;;25.10;60.90;;;;;;4936701;28;20031;-69
2022/07/29 10:23:34;;;;;;;6.10;1.30;;;25.10;58.80;;;;;;4939703;28;20090;-69
2022/07/29 10:26:00;;;;;;;5.10;1.20;;;25.10;58.20;;;;;;4942299;28;20098;-70
2022/07/29 10:28:26;;;;;;;4.93;1.20;;;25.20;59.80;;;;;;4930011;28;20550;-70
2022/07/29 10:31:03;;;;;;;4.28;1.00;;;25.20;58.40;;;;;;4947105;28;20053;-69
2022/07/29 10:33:38;;;;;;;6.65;1.10;;;25.40;56.20;;;;;;4938741;28;20073;-68
2022/07/29 10:36:16;;;;;;;4.65;1.20;;;25.60;53.80;;;;;;4924892;28;20685;-68
2022/07/29 10:39:14;;;;;;;4.60;1.70;;;25.80;53.80;;;;;;4938608;28;20039;-70
2022/07/29 10:42:04;;;;;;;3.05;1.20;;;25.80;51.20;;;;;;4942196;28;20820;-69
2022/07/29 10:44:29;;;;;;;;;;;25.80;53.50;;;;;;5054086;28;20429;-69
2022/07/29 10:46:56;;;;;;;3.10;1.00;;;25.90;52.20;;;;;;5064883;28;19923;-70
2022/07/29 10:49:26;;;;;;;5.97;1.10;;;25.90;51.50;;;;;;5043804;28;20043;-69
2022/07/29 10:52:09;;;;;;;4.20;1.20;;;25.90;53.10;;;;;;5058343;28;20047;-69
2022/07/29 10:54:34;;;;;;;4.03;1.10;;;25.90;52.90;;;;;;5059600;28;20097;-69
2022/07/29 10:57:29;;;;;;;6.47;1.10;;;25.90;53.40;;;;;;5059134;28;20565;-70
2022/07/29 11:00:04;;;;;;;5.55;1.10;;;25.90;52.50;;;;;;5061336;28;20036;-70
2022/07/29 11:02:32;;;;;;;4.78;1.17;;;26.10;52.20;;;;;;5063400;28;20034;-71
2022/07/29 11:04:58;;;;;;;5.95;1.45;;;26.20;52.70;;;;;;5045038;28;20031;-70
2022/07/29 11:07:24;;;;;;;4.60;1.50;;;26.20;52.00;;;;;;5060458;28;20024;-69
2022/07/29 11:10:15;;;;;;;4.15;1.10;;;26.40;49.80;;;;;;5058940;28;20071;-69
2022/07/29 11:12:41;;;;;;;5.68;1.17;;;26.60;51.20;;;;;;5059621;28;20036;-69
2022/07/29 11:15:21;;;;;;;5.43;1.30;;;26.70;51.40;;;;;;5055590;28;20044;-69
2022/07/29 11:18:01;;;;;;;6.28;1.10;;;27.10;51.60;;;;;;5065909;28;20036;-69
2022/07/29 11:20:45;;;;;;;3.20;1.10;;;27.30;49.30;;;;;;5073930;28;20037;-69
2022/07/29 11:23:23;;;;;;;2.25;1.10;;;27.70;49.90;;;;;;5071691;28;20035;-69
2022/07/29 11:26:10;;;;;;;4.15;1.40;;;27.80;48.90;;;;;;5045792;28;20028;-69
2022/07/29 11:28:48;;;;;;;5.57;1.50;;;27.60;48.30;;;;;;5077328;28;20492;-68
2022/07/29 11:31:16;;;;;;;5.47;1.73;;;27.40;47.00;;;;;;5082226;28;20059;-68
2022/07/29 11:33:42;;;;;;;5.85;1.52;;;27.40;47.30;;;;;;5070312;28;20529;-69
2022/07/29 11:36:10;;;;;;;6.22;1.40;;;28.80;46.20;;;;;;5068604;28;20082;-69
2022/07/29 11:38:36;;;;;;;5.28;1.30;;;31.70;41.60;;;;;;5070735;28;20033;-69
2022/07/29 11:41:21;;;;;;;4.32;1.30;;;32.80;39.90;;;;;;5045642;28;20040;-69
2022/07/29 11:43:55;;;;;;;5.63;1.40;;;32.90;38.50;;;;;;5060125;28;20486;-69
2022/07/29 11:46:43;;;;;;;4.07;1.40;;;31.90;39.00;;;;;;5067458;28;20470;-69
2022/07/29 11:49:11;;;;;;;3.22;1.20;;;31.90;39.00;;;;;;5066522;28;20043;-70
2022/07/29 11:51:37;;;;;;;3.90;1.20;;;31.50;38.30;;;;;;5065753;28;20385;-70
2022/07/29 11:54:05;;;;;;;4.57;1.30;;;30.50;39.30;;;;;;5065599;28;20060;-70
2022/07/29 11:56:38;;;;;;;9.93;1.42;;;29.90;40.60;;;;;;5059047;28;20038;-69
2022/07/29 11:59:06;;;;;;;5.13;1.30;;;29.80;41.20;;;;;;5064462;28;20047;-70
2022/07/29 12:01:32;;;;;;;4.15;1.30;;;29.50;41.50;;;;;;5065337;28;20043;-70
2022/07/29 12:04:07;;;;;;;5.55;1.50;;;29.50;40.60;;;;;;5062884;28;20986;-70
2022/07/29 12:06:36;;;;;;;6.00;1.20;;;29.70;41.30;;;;;;5065326;28;20040;-70
2022/07/29 12:09:08;;;;;;;4.43;1.30;;;29.50;40.30;;;;;;5045287;28;20058;-68
2022/07/29 12:11:33;;;;;;;5.05;1.30;;;28.70;41.70;;;;;;5066689;28;20143;-69
2022/07/29 12:13:59;;;;;;;3.00;1.17;;;28.20;42.70;;;;;;5049622;28;20436;-69
2022/07/29 12:16:36;;;;;;;3.67;1.27;;;28.00;44.40;;;;;;5049600;28;20024;-68
2022/07/29 12:19:03;;;;;;;3.92;1.30;;;27.90;45.00;;;;;;5062955;28;20110;-69
2022/07/29 12:21:46;;;;;;;5.68;1.60;;;27.70;44.60;;;;;;5066974;28;20034;-69
2022/07/29 12:24:12;;;;;;;3.58;1.20;;;27.30;45.00;;;;;;5061037;28;20040;-69
2022/07/29 12:26:53;;;;;;;4.35;1.20;;;26.90;46.00;;;;;;5061359;28;20035;-69
2022/07/29 12:29:19;;;;;;;5.85;1.48;;;26.40;45.60;;;;;;5042831;28;20127;-69
2022/07/29 12:31:46;;;;;;;5.85;1.40;;;25.90;46.90;;;;;;5042082;28;20127;-69
2022/07/29 12:34:15;;;;;;;4.90;1.30;;;25.70;47.30;;;;;;5056268;28;20143;-69
2022/07/29 12:36:42;;;;;;;4.22;1.30;;;25.70;50.00;;;;;;5041825;28;20475;-69
2022/07/29 12:39:09;;;;;;;4.95;1.50;;;26.10;53.00;;;;;;5058878;28;20090;-69
2022/07/29 12:41:35;;;;;;;5.53;1.60;;;26.60;55.40;;;;;;5058244;28;20042;-69
2022/07/29 12:44:01;;;;;;;6.85;1.50;;;27.00;57.20;;;;;;5063855;28;20036;-69
2022/07/29 12:46:27;;;;;;;8.95;1.50;;;27.30;56.30;;;;;;5061280;28;20123;-68
2022/07/29 12:48:54;;;;;;;7.22;1.50;;;27.50;53.50;;;;;;5059605;28;20036;-69
2022/07/29 12:51:46;;;;;;;5.88;1.60;;;27.60;54.10;;;;;;5060413;28;20033;-69
2022/07/29 12:54:15;;;;;;;6.65;1.77;;;28.10;54.90;;;;;;5053677;28;20041;-69
2022/07/29 12:56:42;;;;;;;4.72;1.38;;;28.80;53.40;;;;;;5059776;28;20040;-70
2022/07/29 12:59:26;;;;;;;4.30;1.50;;;29.00;52.70;;;;;;5046770;28;20025;-70
2022/07/29 13:01:52;;;;;;;5.93;1.60;;;28.70;51.30;;;;;;5067042;28;20032;-70